Posidonia — EACL — position and weather

sailwx.info

Track history (hours):
 
Tides and Currents Weather Stations Pressure Air Temp Water Temp Dewpoint Dewpoint Depression Visibility Wind Speed Wind Dir Waves Ship Positions

Posidonia

Last reported at 2018-Jul-21 22:30 UTC. Time now 2018-Jul-21 22:50 UTC.
Position N 38°55' E 001°26'.

Length 71 m; draft 3.6 m.

Type: Ship. MMSI: 225444000.

Date/timePositionNaut miles runAvg speedWind from/ knotsBaromVisibWave heightAir tempDewpointWater temp
2018-Jul-21 22:30N 38°55' E 001°26'0 0.0
2018-Jul-21 21:51N 38°55' E 001°26'1 3.6
2018-Jul-21 21:28N 38°53' E 001°27'8 6.4
2018-Jul-21 20:15N 38°46' E 001°25'414.2
2018-Jul-21 19:59N 38°49' E 001°26'510.8
2018-Jul-21 19:30N 38°55' E 001°26'0 0.0
2018-Jul-21 18:59N 38°55' E 001°26'0 0.0
2018-Jul-21 18:29N 38°55' E 001°26'0 0.0
2018-Jul-21 17:57N 38°55' E 001°26'0 0.0
2018-Jul-21 17:28N 38°55' E 001°26'5 9.6
2018-Jul-21 16:59N 38°50' E 001°26'6 5.9
2018-Jul-21 16:02N 38°45' E 001°25'112.2
2018-Jul-21 15:59N 38°45' E 001°25'612.6
2018-Jul-21 15:30N 38°51' E 001°26'4 7.1
2018-Jul-21 15:00N 38°55' E 001°26'0 0.0
2018-Jul-21 14:28N 38°55' E 001°26'0 0.0
2018-Jul-21 13:28N 38°55' E 001°26'0 0.0
2018-Jul-21 12:59N 38°55' E 001°26'0 0.0
2018-Jul-21 12:26N 38°55' E 001°26'0 0.0
2018-Jul-21 12:00N 38°55' E 001°26'510.0
2018-Jul-21 11:30N 38°50' E 001°26'5 5.2
2018-Jul-21 10:30N 38°45' E 001°25'612.7
2018-Jul-21 10:00N 38°51' E 001°26'4 7.4
2018-Jul-21 09:29N 38°55' E 001°26'0 0.0
2018-Jul-21 08:55N 38°55' E 001°26'0 0.0
2018-Jul-21 08:30N 38°55' E 001°26'0 0.0
2018-Jul-21 07:59N 38°55' E 001°26'0 0.0
2018-Jul-21 07:27N 38°55' E 001°26'510.4
2018-Jul-21 07:00N 38°50' E 001°26'6 5.5
2018-Jul-21 05:59N 38°45' E 001°25'712.7
2018-Jul-21 05:28N 38°51' E 001°26'4 7.6
2018-Jul-21 05:00N 38°55' E 001°26'0 0.0
2018-Jul-21 04:26N 38°55' E 001°26'0 0.0
2018-Jul-21 03:57N 38°55' E 001°26'0 0.0
2018-Jul-21 03:29N 38°55' E 001°26'0 0.0
2018-Jul-21 03:00N 38°55' E 001°26'0 0.0
2018-Jul-21 02:28N 38°55' E 001°26'0 0.0
2018-Jul-21 02:00N 38°55' E 001°26'0 0.0
2018-Jul-21 01:26N 38°55' E 001°26'0 0.0
2018-Jul-21 00:59N 38°55' E 001°26'0 0.0
2018-Jul-21 00:30N 38°55' E 001°26'0 0.0
2018-Jul-20 23:56N 38°55' E 001°26'0 0.0
2018-Jul-20 23:26N 38°55' E 001°26'0 0.0
2018-Jul-20 22:58N 38°55' E 001°26'0 0.0
2018-Jul-20 22:29N 38°55' E 001°26'0 0.0
2018-Jul-20 22:00N 38°55' E 001°26'2 3.8
2018-Jul-20 21:23N 38°52' E 001°26'514.5
2018-Jul-20 21:00N 38°47' E 001°25'3 5.8
2018-Jul-20 20:28N 38°44' E 001°25'1013.6
2018-Jul-20 19:44N 38°54' E 001°27'1 2.9
2018-Jul-20 19:29N 38°55' E 001°26'0 0.0
2018-Jul-20 18:59N 38°55' E 001°26'0 0.0
2018-Jul-20 18:30N 38°55' E 001°26'0 0.0
2018-Jul-20 17:55N 38°55' E 001°26'0 0.0
2018-Jul-20 17:26N 38°55' E 001°26'410.2
2018-Jul-20 17:00N 38°50' E 001°26'6 6.7
2018-Jul-20 16:03N 38°44' E 001°25'1 7.4
2018-Jul-20 15:58N 38°45' E 001°25'612.3
2018-Jul-20 15:29N 38°51' E 001°26'4 8.0
2018-Jul-20 14:58N 38°55' E 001°26'0 0.0
2018-Jul-20 14:29N 38°55' E 001°26'0 0.0
2018-Jul-20 13:56N 38°55' E 001°26'0 0.0
2018-Jul-20 13:26N 38°55' E 001°26'0 0.0
2018-Jul-20 12:57N 38°55' E 001°26'0 0.0
2018-Jul-20 12:28N 38°55' E 001°26'0 0.0
2018-Jul-20 12:00N 38°55' E 001°26'611.8
2018-Jul-20 11:30N 38°49' E 001°25'4 4.0
2018-Jul-20 10:28N 38°45' E 001°25'612.3
2018-Jul-20 09:59N 38°51' E 001°26'4 8.3
2018-Jul-20 09:29N 38°55' E 001°26'0 0.0
2018-Jul-20 09:00N 38°55' E 001°26'0 0.0
2018-Jul-20 08:29N 38°55' E 001°26'0 0.0
2018-Jul-20 07:58N 38°55' E 001°26'0 0.1
2018-Jul-20 07:27N 38°55' E 001°26'510.8
2018-Jul-20 07:00N 38°50' E 001°26'0 0.2
2018-Jul-20 05:37N 38°50' E 001°26'213.9
2018-Jul-20 05:30N 38°51' E 001°26'3 6.2
2018-Jul-20 04:56N 38°55' E 001°26'0 0.0
2018-Jul-20 04:24N 38°55' E 001°26'0 0.0
2018-Jul-20 04:00N 38°55' E 001°26'0 0.0
2018-Jul-20 03:27N 38°55' E 001°26'0 0.0
2018-Jul-20 02:48N 38°55' E 001°26'0 0.0
2018-Jul-20 02:28N 38°55' E 001°26'0 0.0
2018-Jul-20 01:56N 38°55' E 001°26'0 0.0
2018-Jul-20 00:22N 38°55' E 001°26'0 0.0
2018-Jul-19 23:57N 38°55' E 001°26'0 0.0
2018-Jul-19 23:28N 38°55' E 001°26'0 0.0
2018-Jul-19 22:59N 38°55' E 001°26'0 0.0
2018-Jul-19 22:30N 38°55' E 001°26'3 2.7
2018-Jul-19 21:18N 38°51' E 001°26'614.8
2018-Jul-19 20:51N 38°45' E 001°25'1 1.1
2018-Jul-19 20:21N 38°45' E 001°25'713.8
2018-Jul-19 19:52N 38°51' E 001°26'4 9.1
2018-Jul-19 19:29N 38°55' E 001°26'0 0.0
2018-Jul-19 18:58N 38°55' E 001°26'0 0.0
2018-Jul-19 18:24N 38°55' E 001°26'2 1.2
2018-Jul-19 17:12N 38°53' E 001°27'515.0
2018-Jul-19 16:51N 38°48' E 001°25'1 1.0
2018-Jul-19 15:50N 38°47' E 001°24'413.4
2018-Jul-19 15:30N 38°52' E 001°26'3 2.0
2018-Jul-19 13:51N 38°55' E 001°26'0 0.0
2018-Jul-19 13:27N 38°55' E 001°26'0 0.0
2018-Jul-19 12:59N 38°55' E 001°26'0 0.0
2018-Jul-19 12:29N 38°55' E 001°26'0 0.0
2018-Jul-19 12:00N 38°55' E 001°26'5 9.8
2018-Jul-19 11:30N 38°50' E 001°26'2 1.9
2018-Jul-19 10:15N 38°48' E 001°25'413.0
2018-Jul-19 09:57N 38°51' E 001°26'4 4.1
2018-Jul-19 09:06N 38°55' E 001°26'0 0.0
2018-Jul-19 08:58N 38°55' E 001°26'0 0.0
2018-Jul-19 08:29N 38°55' E 001°26'0 0.0
2018-Jul-19 07:59N 38°55' E 001°26'0 0.0
2018-Jul-19 07:28N 38°55' E 001°26'611.2
2018-Jul-19 06:56N 38°49' E 001°25'3 2.4
2018-Jul-19 05:50N 38°46' E 001°24'513.3
2018-Jul-19 05:25N 38°51' E 001°26'3 7.6
2018-Jul-19 04:59N 38°55' E 001°26'0 0.0
2018-Jul-19 04:13N 38°55' E 001°26'0 0.0
2018-Jul-19 03:52N 38°55' E 001°26'0 0.0
2018-Jul-19 03:29N 38°55' E 001°26'0 0.0
2018-Jul-19 02:57N 38°55' E 001°26'0 0.0
2018-Jul-19 02:28N 38°55' E 001°26'0 0.0
2018-Jul-19 01:59N 38°55' E 001°26'0 0.0
2018-Jul-19 01:30N 38°55' E 001°26'0 0.0
2018-Jul-19 00:42N 38°55' E 001°26'0 0.0
2018-Jul-19 00:27N 38°55' E 001°26'0 0.0
2018-Jul-18 23:58N 38°55' E 001°26'0 0.0
2018-Jul-18 22:36N 38°55' E 001°26'0 0.0
2018-Jul-18 22:07N 38°55' E 001°26'0 0.0
2018-Jul-18 21:57N 38°55' E 001°26'2 3.8
2018-Jul-18 21:25N 38°53' E 001°27'2 1.1
2018-Jul-18 19:55N 38°51' E 001°26'4 4.8
2018-Jul-18 19:10N 38°55' E 001°26'0 0.0
2018-Jul-18 18:55N 38°55' E 001°26'0 0.0
2018-Jul-18 18:26N 38°55' E 001°26'0 0.0
2018-Jul-18 17:31N 38°55' E 001°26'2 5.5
2018-Jul-18 17:09N 38°53' E 001°26'214.0
2018-Jul-18 16:59N 38°51' E 001°26'6 5.4
2018-Jul-18 15:58N 38°45' E 001°25'612.5
2018-Jul-18 15:29N 38°51' E 001°26'4 4.8
2018-Jul-18 14:42N 38°55' E 001°26'0 0.0
2018-Jul-18 14:29N 38°55' E 001°26'0 0.0
2018-Jul-18 13:22N 38°55' E 001°26'0 0.0
2018-Jul-18 12:57N 38°55' E 001°26'1 1.2
2018-Jul-18 11:44N 38°53' E 001°27'3 1.9
2018-Jul-18 10:02N 38°50' E 001°26'113.2
2018-Jul-18 09:57N 38°51' E 001°26'3 7.0
2018-Jul-18 09:27N 38°55' E 001°26'0 0.0
2018-Jul-18 08:48N 38°55' E 001°26'0 0.0
2018-Jul-18 08:27N 38°55' E 001°26'0 0.0
2018-Jul-18 07:58N 38°55' E 001°26'0 0.3
2018-Jul-18 07:23N 38°55' E 001°27'513.1
2018-Jul-18 07:00N 38°50' E 001°26'2 2.0
2018-Jul-18 05:46N 38°48' E 001°25'413.3
2018-Jul-18 05:27N 38°52' E 001°26'3 6.2
2018-Jul-18 04:56N 38°55' E 001°26'0 0.0
2018-Jul-18 04:29N 38°55' E 001°26'0 0.0
2018-Jul-18 03:56N 38°55' E 001°26'0 0.0
2018-Jul-18 02:08N 38°55' E 001°26'0 0.0
2018-Jul-18 01:54N 38°55' E 001°26'0 0.0
2018-Jul-18 01:28N 38°55' E 001°26'0 0.0
2018-Jul-18 00:59N 38°55' E 001°26'0 0.0
2018-Jul-18 00:26N 38°55' E 001°26'0 0.0
2018-Jul-18 00:00N 38°55' E 001°26'0 0.0
2018-Jul-17 23:27N 38°55' E 001°26'0 0.0
2018-Jul-17 21:48N 38°55' E 001°26'1 2.6
2018-Jul-17 21:30N 38°54' E 001°27'8 7.1
2018-Jul-17 20:19N 38°46' E 001°25'613.3
2018-Jul-17 19:53N 38°51' E 001°26'3 3.3
2018-Jul-17 18:52N 38°55' E 001°26'0 0.0
2018-Jul-17 18:26N 38°55' E 001°26'0 0.0
2018-Jul-17 17:58N 38°55' E 001°26'0 0.0
2018-Jul-17 17:29N 38°55' E 001°26'5 9.5
2018-Jul-17 17:00N 38°50' E 001°26'612.1
2018-Jul-17 16:30N 38°44' E 001°25'1 1.9
2018-Jul-17 15:58N 38°45' E 001°25'612.7
2018-Jul-17 15:29N 38°51' E 001°26'4 7.5
2018-Jul-17 15:00N 38°55' E 001°26'0 0.0
2018-Jul-17 14:28N 38°55' E 001°26'0 0.0
2018-Jul-17 13:58N 38°55' E 001°26'0 0.0
2018-Jul-17 13:27N 38°55' E 001°26'0 0.0
2018-Jul-17 13:00N 38°55' E 001°26'0 0.0
2018-Jul-17 12:26N 38°55' E 001°26'0 0.0
2018-Jul-17 11:58N 38°55' E 001°26'511.3
2018-Jul-17 11:29N 38°49' E 001°26'3 2.4
2018-Jul-17 10:17N 38°47' E 001°24'512.8
2018-Jul-17 09:54N 38°51' E 001°26'4 8.0
2018-Jul-17 09:28N 38°55' E 001°26'0 0.0
2018-Jul-17 09:00N 38°55' E 001°26'0 0.0
2018-Jul-17 08:28N 38°55' E 001°26'0 0.0
2018-Jul-17 08:00N 38°55' E 001°26'0 0.0
2018-Jul-17 07:30N 38°55' E 001°26'510.2
2018-Jul-17 07:00N 38°50' E 001°26'611.2
2018-Jul-17 06:29N 38°44' E 001°25'2 2.9
2018-Jul-17 05:57N 38°46' E 001°25'613.4
2018-Jul-17 05:30N 38°51' E 001°26'3 2.4
2018-Jul-17 04:07N 38°55' E 001°26'0 0.0
2018-Jul-17 03:58N 38°55' E 001°26'0 0.0
2018-Jul-17 03:29N 38°55' E 001°26'0 0.0
2018-Jul-17 02:57N 38°55' E 001°26'0 0.0
2018-Jul-17 01:29N 38°55' E 001°26'0 0.0
2018-Jul-17 00:15N 38°55' E 001°26'0 0.0
2018-Jul-16 22:41N 38°55' E 001°26'0 0.0
2018-Jul-16 22:29N 38°55' E 001°26'0 0.0
2018-Jul-16 21:56N 38°55' E 001°26'3 5.2
2018-Jul-16 21:24N 38°52' E 001°26'6 4.8
2018-Jul-16 20:12N 38°46' E 001°25'513.9
2018-Jul-16 19:48N 38°52' E 001°26'3 6.0
2018-Jul-16 19:16N 38°55' E 001°26'0 0.0
2018-Jul-16 18:37N 38°55' E 001°26'0 0.0
2018-Jul-16 18:28N 38°55' E 001°26'0 0.0
2018-Jul-16 17:59N 38°55' E 001°26'0 0.0
2018-Jul-16 17:30N 38°55' E 001°26'710.4
2018-Jul-16 16:50N 38°48' E 001°25'3 4.1
2018-Jul-16 16:02N 38°45' E 001°25'110.6
2018-Jul-16 15:59N 38°45' E 001°25'611.9
2018-Jul-16 15:30N 38°51' E 001°26'4 5.9
2018-Jul-16 14:51N 38°55' E 001°26'0 0.0
2018-Jul-16 14:29N 38°55' E 001°26'0 0.0
2018-Jul-16 13:59N 38°55' E 001°26'0 0.0
2018-Jul-16 13:27N 38°55' E 001°26'0 0.0
2018-Jul-16 12:58N 38°55' E 001°26'0 0.0
2018-Jul-16 12:28N 38°55' E 001°26'0 0.7
2018-Jul-16 11:58N 38°55' E 001°27'613.4
2018-Jul-16 11:30N 38°48' E 001°25'4 3.9
2018-Jul-16 10:34N 38°45' E 001°25'110.7
2018-Jul-16 10:27N 38°46' E 001°25'611.5
2018-Jul-16 09:57N 38°51' E 001°27'3 6.9
2018-Jul-16 09:28N 38°55' E 001°26'0 0.0
2018-Jul-16 08:57N 38°55' E 001°26'0 0.0
2018-Jul-16 08:28N 38°55' E 001°26'0 0.0
2018-Jul-16 07:57N 38°55' E 001°26'1 2.6
2018-Jul-16 07:29N 38°54' E 001°27'713.1
2018-Jul-16 06:59N 38°47' E 001°25'2 3.5
2018-Jul-16 06:16N 38°45' E 001°25'712.7
2018-Jul-16 05:44N 38°51' E 001°27'312.1
2018-Jul-16 05:28N 38°55' E 001°26'0 0.0
2018-Jul-16 04:59N 38°55' E 001°26'0 0.0
2018-Jul-16 04:28N 38°55' E 001°26'0 0.0
2018-Jul-16 03:58N 38°55' E 001°26'0 0.0
2018-Jul-16 03:30N 38°55' E 001°26'0 0.0
2018-Jul-16 02:58N 38°55' E 001°26'0 0.0
2018-Jul-16 02:30N 38°55' E 001°26'0 0.0
2018-Jul-16 01:53N 38°55' E 001°26'0 0.0
2018-Jul-16 01:29N 38°55' E 001°26'0 0.0
2018-Jul-16 01:01N 38°55' E 001°26'0 0.0
2018-Jul-16 00:27N 38°55' E 001°26'0 0.0
2018-Jul-15 23:59N 38°55' E 001°26'0 0.0
2018-Jul-15 22:23N 38°55' E 001°26'0 0.0
2018-Jul-15 21:47N 38°55' E 001°26'1 3.3
2018-Jul-15 21:30N 38°54' E 001°27'9 7.7
2018-Jul-15 20:22N 38°45' E 001°25'713.7
2018-Jul-15 19:53N 38°52' E 001°26'3 5.7
2018-Jul-15 19:20N 38°55' E 001°26'0 0.0
2018-Jul-15 19:00N 38°55' E 001°26'0 0.0
2018-Jul-15 18:27N 38°55' E 001°26'0 0.0
2018-Jul-15 17:59N 38°55' E 001°26'0 0.0
2018-Jul-15 17:27N 38°55' E 001°26'9 6.0
2018-Jul-15 15:57N 38°46' E 001°25'612.7
2018-Jul-15 15:30N 38°51' E 001°26'3 6.8
2018-Jul-15 15:00N 38°55' E 001°26'0 0.0
2018-Jul-15 14:21N 38°55' E 001°26'0 0.0
2018-Jul-15 13:44N 38°55' E 001°26'0 0.0
2018-Jul-15 13:22N 38°55' E 001°26'0 0.0
2018-Jul-15 12:50N 38°55' E 001°26'0 0.0
2018-Jul-15 12:23N 38°55' E 001°26'0 0.2
2018-Jul-15 11:52N 38°55' E 001°26'411.7
2018-Jul-15 11:30N 38°51' E 001°26'1 0.4
2018-Jul-15 09:58N 38°51' E 001°26'4 7.7
2018-Jul-15 09:30N 38°55' E 001°26'0 0.0
2018-Jul-15 08:55N 38°55' E 001°26'0 0.2
2018-Jul-15 08:21N 38°55' E 001°27'613.7
2018-Jul-15 07:55N 38°49' E 001°25'5 4.6
2018-Jul-15 06:55N 38°44' E 001°25'713.5
2018-Jul-15 06:24N 38°51' E 001°26'4 8.4
2018-Jul-15 05:58N 38°55' E 001°26'0 0.0
2018-Jul-15 05:28N 38°55' E 001°26'0 0.0
2018-Jul-15 05:00N 38°55' E 001°26'0 0.0
2018-Jul-15 04:28N 38°55' E 001°26'0 0.0
2018-Jul-15 03:59N 38°55' E 001°26'0 0.0
2018-Jul-15 03:21N 38°55' E 001°26'0 0.0
2018-Jul-15 02:59N 38°55' E 001°26'0 0.0
2018-Jul-15 02:30N 38°55' E 001°26'0 0.0
2018-Jul-15 01:58N 38°55' E 001°26'0 0.0
2018-Jul-15 01:29N 38°55' E 001°26'0 0.0
2018-Jul-15 01:00N 38°55' E 001°26'0 0.0
2018-Jul-15 00:27N 38°55' E 001°26'0 0.0
2018-Jul-14 23:58N 38°55' E 001°26'0 0.0
2018-Jul-14 23:30N 38°55' E 001°26'0 0.0
2018-Jul-14 22:58N 38°55' E 001°26'0 0.0
2018-Jul-14 22:27N 38°55' E 001°26'0 0.0
2018-Jul-14 22:00N 38°55' E 001°26'2 3.8
2018-Jul-14 21:27N 38°53' E 001°27'8 7.0
2018-Jul-14 20:20N 38°45' E 001°25'613.7
2018-Jul-14 19:53N 38°51' E 001°26'4 8.1
2018-Jul-14 19:27N 38°55' E 001°26'0 0.0
2018-Jul-14 19:00N 38°55' E 001°26'0 0.0
2018-Jul-14 18:26N 38°55' E 001°26'0 0.1
2018-Jul-14 17:19N 38°55' E 001°27'9 6.3
2018-Jul-14 15:56N 38°46' E 001°25'512.6
2018-Jul-14 15:30N 38°51' E 001°27'4 6.5
2018-Jul-14 14:57N 38°55' E 001°26'0 0.0
2018-Jul-14 14:26N 38°55' E 001°26'0 0.0
2018-Jul-14 13:27N 38°55' E 001°26'0 0.0
2018-Jul-14 12:58N 38°55' E 001°26'0 0.0
2018-Jul-14 12:30N 38°55' E 001°26'0 0.0
2018-Jul-14 11:58N 38°55' E 001°26'510.8
2018-Jul-14 11:30N 38°50' E 001°26'5 5.2
2018-Jul-14 10:30N 38°45' E 001°25'713.2
2018-Jul-14 09:58N 38°52' E 001°27'3 6.5
2018-Jul-14 09:29N 38°55' E 001°26'0 0.0
2018-Jul-14 09:00N 38°55' E 001°26'0 0.0
2018-Jul-14 08:24N 38°55' E 001°26'0 0.0
2018-Jul-14 08:00N 38°55' E 001°26'0 0.2
2018-Jul-14 07:26N 38°55' E 001°27'9 5.8
2018-Jul-14 05:56N 38°46' E 001°25'613.0
2018-Jul-14 05:30N 38°51' E 001°26'3 6.4
2018-Jul-14 04:59N 38°55' E 001°26'0 0.0
2018-Jul-14 04:26N 38°55' E 001°26'0 0.0
2018-Jul-14 03:34N 38°55' E 001°26'0 0.0
2018-Jul-14 03:30N 38°55' E 001°26'0 0.0
2018-Jul-14 02:50N 38°55' E 001°26'0 0.0
2018-Jul-14 02:30N 38°55' E 001°26'0 0.0
2018-Jul-14 01:58N 38°55' E 001°26'0 0.0
2018-Jul-14 01:29N 38°55' E 001°26'0 0.0
2018-Jul-14 00:53N 38°55' E 001°26'0 0.0
2018-Jul-14 00:30N 38°55' E 001°26'0 0.0
2018-Jul-13 23:56N 38°55' E 001°26'0 0.0
2018-Jul-13 23:30N 38°55' E 001°26'0 0.0
2018-Jul-13 22:58N 38°55' E 001°26'0 0.0
2018-Jul-13 22:29N 38°55' E 001°26'0 0.0
2018-Jul-13 21:58N 38°55' E 001°26'2 3.8
2018-Jul-13 21:28N 38°53' E 001°27'7 5.7
2018-Jul-13 20:17N 38°46' E 001°24'514.0
2018-Jul-13 19:54N 38°51' E 001°27'3 8.9
2018-Jul-13 19:30N 38°55' E 001°26'0 0.0
2018-Jul-13 18:57N 38°55' E 001°26'0 0.0
2018-Jul-13 18:27N 38°55' E 001°26'0 0.0
2018-Jul-13 17:59N 38°55' E 001°26'0 0.1
2018-Jul-13 17:29N 38°55' E 001°26'611.9
2018-Jul-13 16:57N 38°49' E 001°25'4 4.4
2018-Jul-13 16:02N 38°45' E 001°25'012.4
2018-Jul-13 16:00N 38°45' E 001°25'612.9
2018-Jul-13 15:30N 38°51' E 001°26'4 6.4
2018-Jul-13 14:57N 38°55' E 001°26'0 0.0
2018-Jul-13 13:59N 38°55' E 001°26'0 0.0
2018-Jul-13 13:28N 38°55' E 001°26'0 0.0
2018-Jul-13 12:59N 38°55' E 001°26'0 0.0
2018-Jul-13 12:27N 38°55' E 001°26'0 0.0
2018-Jul-13 11:59N 38°55' E 001°26'4 8.7
2018-Jul-13 11:30N 38°51' E 001°26'6 5.9
2018-Jul-13 10:29N 38°45' E 001°25'611.8
2018-Jul-13 10:00N 38°50' E 001°26'4 8.5
2018-Jul-13 09:28N 38°55' E 001°26'0 0.0
2018-Jul-13 08:59N 38°55' E 001°26'0 0.0
2018-Jul-13 08:29N 38°55' E 001°26'0 0.0
2018-Jul-13 07:59N 38°55' E 001°26'0 0.4
2018-Jul-13 07:26N 38°55' E 001°27'613.6
2018-Jul-13 07:00N 38°49' E 001°25'3 2.3
2018-Jul-13 05:54N 38°46' E 001°25'513.1
2018-Jul-13 05:29N 38°52' E 001°26'3 6.6
2018-Jul-13 05:00N 38°55' E 001°26'0 0.0
2018-Jul-13 04:18N 38°55' E 001°26'0 0.0
2018-Jul-13 03:53N 38°55' E 001°26'0 0.0
2018-Jul-13 03:15N 38°55' E 001°26'0 0.0
2018-Jul-13 02:56N 38°55' E 001°26'0 0.0
2018-Jul-13 02:30N 38°55' E 001°26'0 0.0
2018-Jul-13 02:00N 38°55' E 001°26'0 0.0
2018-Jul-13 01:29N 38°55' E 001°26'0 0.0
2018-Jul-13 01:00N 38°55' E 001°26'0 0.0
2018-Jul-13 00:30N 38°55' E 001°26'0 0.0
2018-Jul-12 23:55N 38°55' E 001°26'0 0.0
2018-Jul-12 23:29N 38°55' E 001°26'0 0.0
2018-Jul-12 23:00N 38°55' E 001°26'0 0.0
2018-Jul-12 22:23N 38°55' E 001°26'1 1.6
2018-Jul-12 21:32N 38°53' E 001°27'113.1
2018-Jul-12 21:29N 38°53' E 001°26'814.2
2018-Jul-12 20:56N 38°45' E 001°25'1 1.9
2018-Jul-12 20:29N 38°44' E 001°25'712.3
2018-Jul-12 19:53N 38°51' E 001°26'3 6.9
2018-Jul-12 19:24N 38°55' E 001°26'0 0.0
2018-Jul-12 18:54N 38°55' E 001°26'0 0.0
2018-Jul-12 17:57N 38°55' E 001°26'0 0.2
2018-Jul-12 17:24N 38°55' E 001°26'713.5
2018-Jul-12 16:54N 38°48' E 001°25'3 2.2
2018-Jul-12 15:30N 38°51' E 001°26'4 7.3
2018-Jul-12 14:58N 38°55' E 001°26'0 0.0
2018-Jul-12 14:26N 38°55' E 001°26'0 0.0
2018-Jul-12 13:59N 38°55' E 001°26'0 0.0
2018-Jul-12 13:21N 38°55' E 001°26'0 0.0
2018-Jul-12 13:00N 38°55' E 001°26'0 0.0
2018-Jul-12 12:30N 38°55' E 001°26'0 0.1
2018-Jul-12 11:53N 38°55' E 001°26'512.4
2018-Jul-12 11:28N 38°50' E 001°26'3 3.1
2018-Jul-12 10:22N 38°46' E 001°25'514.2
2018-Jul-12 10:00N 38°51' E 001°26'3 6.7
2018-Jul-12 09:28N 38°55' E 001°26'0 0.0
2018-Jul-12 08:59N 38°55' E 001°26'0 0.0
2018-Jul-12 08:30N 38°55' E 001°26'0 0.0
2018-Jul-12 07:59N 38°55' E 001°26'0 0.0
2018-Jul-12 07:30N 38°55' E 001°26'10 6.9
2018-Jul-12 06:01N 38°45' E 001°25'012.9
2018-Jul-12 05:59N 38°45' E 001°25'613.1
2018-Jul-12 05:30N 38°51' E 001°26'4 6.8
2018-Jul-12 04:59N 38°55' E 001°26'0 0.0
2018-Jul-12 04:26N 38°55' E 001°26'0 0.0
2018-Jul-12 03:57N 38°55' E 001°26'0 0.0
2018-Jul-12 03:20N 38°55' E 001°26'0 0.0
2018-Jul-12 02:58N 38°55' E 001°26'0 0.0
2018-Jul-12 02:22N 38°55' E 001°26'0 0.0
2018-Jul-12 01:58N 38°55' E 001°26'0 0.0
2018-Jul-12 01:30N 38°55' E 001°26'0 0.0
2018-Jul-12 01:00N 38°55' E 001°26'0 0.0
2018-Jul-12 00:26N 38°55' E 001°26'0 0.0
2018-Jul-12 00:00N 38°55' E 001°26'0 0.0
2018-Jul-11 23:26N 38°55' E 001°26'0 0.0
2018-Jul-11 23:00N 38°55' E 001°26'  
Track history (hours):
 
Tides and Currents Weather Stations Pressure Air Temp Water Temp Dewpoint Dewpoint Depression Visibility Wind Speed Wind Dir Waves Ship Positions

Posidonia

Last reported at 2018-Jul-21 22:30 UTC. Time now 2018-Jul-21 22:50 UTC.
Position N 38°55' E 001°26'.

Length 71 m; draft 3.6 m.

Type: Ship. MMSI: 225444000.

Date/timePositionNaut miles runAvg speedWind from/ knotsBaromVisibWave heightAir tempDewpointWater temp
2018-Jul-21 22:30N 38°55' E 001°26'0 0.0
2018-Jul-21 21:51N 38°55' E 001°26'1 3.6
2018-Jul-21 21:28N 38°53' E 001°27'8 6.4
2018-Jul-21 20:15N 38°46' E 001°25'414.2
2018-Jul-21 19:59N 38°49' E 001°26'510.8
2018-Jul-21 19:30N 38°55' E 001°26'0 0.0
2018-Jul-21 18:59N 38°55' E 001°26'0 0.0
2018-Jul-21 18:29N 38°55' E 001°26'0 0.0
2018-Jul-21 17:57N 38°55' E 001°26'0 0.0
2018-Jul-21 17:28N 38°55' E 001°26'5 9.6
2018-Jul-21 16:59N 38°50' E 001°26'6 5.9
2018-Jul-21 16:02N 38°45' E 001°25'112.2
2018-Jul-21 15:59N 38°45' E 001°25'612.6
2018-Jul-21 15:30N 38°51' E 001°26'4 7.1
2018-Jul-21 15:00N 38°55' E 001°26'0 0.0
2018-Jul-21 14:28N 38°55' E 001°26'0 0.0
2018-Jul-21 13:28N 38°55' E 001°26'0 0.0
2018-Jul-21 12:59N 38°55' E 001°26'0 0.0
2018-Jul-21 12:26N 38°55' E 001°26'0 0.0
2018-Jul-21 12:00N 38°55' E 001°26'510.0
2018-Jul-21 11:30N 38°50' E 001°26'5 5.2
2018-Jul-21 10:30N 38°45' E 001°25'612.7
2018-Jul-21 10:00N 38°51' E 001°26'4 7.4
2018-Jul-21 09:29N 38°55' E 001°26'0 0.0
2018-Jul-21 08:55N 38°55' E 001°26'0 0.0
2018-Jul-21 08:30N 38°55' E 001°26'0 0.0
2018-Jul-21 07:59N 38°55' E 001°26'0 0.0
2018-Jul-21 07:27N 38°55' E 001°26'510.4
2018-Jul-21 07:00N 38°50' E 001°26'6 5.5
2018-Jul-21 05:59N 38°45' E 001°25'712.7
2018-Jul-21 05:28N 38°51' E 001°26'4 7.6
2018-Jul-21 05:00N 38°55' E 001°26'0 0.0
2018-Jul-21 04:26N 38°55' E 001°26'0 0.0
2018-Jul-21 03:57N 38°55' E 001°26'0 0.0
2018-Jul-21 03:29N 38°55' E 001°26'0 0.0
2018-Jul-21 03:00N 38°55' E 001°26'0 0.0
2018-Jul-21 02:28N 38°55' E 001°26'0 0.0
2018-Jul-21 02:00N 38°55' E 001°26'0 0.0
2018-Jul-21 01:26N 38°55' E 001°26'0 0.0
2018-Jul-21 00:59N 38°55' E 001°26'0 0.0
2018-Jul-21 00:30N 38°55' E 001°26'0 0.0
2018-Jul-20 23:56N 38°55' E 001°26'0 0.0
2018-Jul-20 23:26N 38°55' E 001°26'0 0.0
2018-Jul-20 22:58N 38°55' E 001°26'0 0.0
2018-Jul-20 22:29N 38°55' E 001°26'0 0.0
2018-Jul-20 22:00N 38°55' E 001°26'2 3.8
2018-Jul-20 21:23N 38°52' E 001°26'514.5
2018-Jul-20 21:00N 38°47' E 001°25'3 5.8
2018-Jul-20 20:28N 38°44' E 001°25'1013.6
2018-Jul-20 19:44N 38°54' E 001°27'1 2.9
2018-Jul-20 19:29N 38°55' E 001°26'0 0.0
2018-Jul-20 18:59N 38°55' E 001°26'0 0.0
2018-Jul-20 18:30N 38°55' E 001°26'0 0.0
2018-Jul-20 17:55N 38°55' E 001°26'0 0.0
2018-Jul-20 17:26N 38°55' E 001°26'410.2
2018-Jul-20 17:00N 38°50' E 001°26'6 6.7
2018-Jul-20 16:03N 38°44' E 001°25'1 7.4
2018-Jul-20 15:58N 38°45' E 001°25'612.3
2018-Jul-20 15:29N 38°51' E 001°26'4 8.0
2018-Jul-20 14:58N 38°55' E 001°26'0 0.0
2018-Jul-20 14:29N 38°55' E 001°26'0 0.0
2018-Jul-20 13:56N 38°55' E 001°26'0 0.0
2018-Jul-20 13:26N 38°55' E 001°26'0 0.0
2018-Jul-20 12:57N 38°55' E 001°26'0 0.0
2018-Jul-20 12:28N 38°55' E 001°26'0 0.0
2018-Jul-20 12:00N 38°55' E 001°26'611.8
2018-Jul-20 11:30N 38°49' E 001°25'4 4.0
2018-Jul-20 10:28N 38°45' E 001°25'612.3
2018-Jul-20 09:59N 38°51' E 001°26'4 8.3
2018-Jul-20 09:29N 38°55' E 001°26'0 0.0
2018-Jul-20 09:00N 38°55' E 001°26'0 0.0
2018-Jul-20 08:29N 38°55' E 001°26'0 0.0
2018-Jul-20 07:58N 38°55' E 001°26'0 0.1
2018-Jul-20 07:27N 38°55' E 001°26'510.8
2018-Jul-20 07:00N 38°50' E 001°26'0 0.2
2018-Jul-20 05:37N 38°50' E 001°26'213.9
2018-Jul-20 05:30N 38°51' E 001°26'3 6.2
2018-Jul-20 04:56N 38°55' E 001°26'0 0.0
2018-Jul-20 04:24N 38°55' E 001°26'0 0.0
2018-Jul-20 04:00N 38°55' E 001°26'0 0.0
2018-Jul-20 03:27N 38°55' E 001°26'0 0.0
2018-Jul-20 02:48N 38°55' E 001°26'0 0.0
2018-Jul-20 02:28N 38°55' E 001°26'0 0.0
2018-Jul-20 01:56N 38°55' E 001°26'0 0.0
2018-Jul-20 00:22N 38°55' E 001°26'0 0.0
2018-Jul-19 23:57N 38°55' E 001°26'0 0.0
2018-Jul-19 23:28N 38°55' E 001°26'0 0.0
2018-Jul-19 22:59N 38°55' E 001°26'0 0.0
2018-Jul-19 22:30N 38°55' E 001°26'3 2.7
2018-Jul-19 21:18N 38°51' E 001°26'614.8
2018-Jul-19 20:51N 38°45' E 001°25'1 1.1
2018-Jul-19 20:21N 38°45' E 001°25'713.8
2018-Jul-19 19:52N 38°51' E 001°26'4 9.1
2018-Jul-19 19:29N 38°55' E 001°26'0 0.0
2018-Jul-19 18:58N 38°55' E 001°26'0 0.0
2018-Jul-19 18:24N 38°55' E 001°26'2 1.2
2018-Jul-19 17:12N 38°53' E 001°27'515.0
2018-Jul-19 16:51N 38°48' E 001°25'1 1.0
2018-Jul-19 15:50N 38°47' E 001°24'413.4
2018-Jul-19 15:30N 38°52' E 001°26'3 2.0
2018-Jul-19 13:51N 38°55' E 001°26'0 0.0
2018-Jul-19 13:27N 38°55' E 001°26'0 0.0
2018-Jul-19 12:59N 38°55' E 001°26'0 0.0
2018-Jul-19 12:29N 38°55' E 001°26'0 0.0
2018-Jul-19 12:00N 38°55' E 001°26'5 9.8
2018-Jul-19 11:30N 38°50' E 001°26'2 1.9
2018-Jul-19 10:15N 38°48' E 001°25'413.0
2018-Jul-19 09:57N 38°51' E 001°26'4 4.1
2018-Jul-19 09:06N 38°55' E 001°26'0 0.0
2018-Jul-19 08:58N 38°55' E 001°26'0 0.0
2018-Jul-19 08:29N 38°55' E 001°26'0 0.0
2018-Jul-19 07:59N 38°55' E 001°26'0 0.0
2018-Jul-19 07:28N 38°55' E 001°26'611.2
2018-Jul-19 06:56N 38°49' E 001°25'3 2.4
2018-Jul-19 05:50N 38°46' E 001°24'513.3
2018-Jul-19 05:25N 38°51' E 001°26'3 7.6
2018-Jul-19 04:59N 38°55' E 001°26'0 0.0
2018-Jul-19 04:13N 38°55' E 001°26'0 0.0
2018-Jul-19 03:52N 38°55' E 001°26'0 0.0
2018-Jul-19 03:29N 38°55' E 001°26'0 0.0
2018-Jul-19 02:57N 38°55' E 001°26'0 0.0
2018-Jul-19 02:28N 38°55' E 001°26'0 0.0
2018-Jul-19 01:59N 38°55' E 001°26'0 0.0
2018-Jul-19 01:30N 38°55' E 001°26'0 0.0
2018-Jul-19 00:42N 38°55' E 001°26'0 0.0
2018-Jul-19 00:27N 38°55' E 001°26'0 0.0
2018-Jul-18 23:58N 38°55' E 001°26'0 0.0
2018-Jul-18 22:36N 38°55' E 001°26'0 0.0
2018-Jul-18 22:07N 38°55' E 001°26'0 0.0
2018-Jul-18 21:57N 38°55' E 001°26'2 3.8
2018-Jul-18 21:25N 38°53' E 001°27'2 1.1
2018-Jul-18 19:55N 38°51' E 001°26'4 4.8
2018-Jul-18 19:10N 38°55' E 001°26'0 0.0
2018-Jul-18 18:55N 38°55' E 001°26'0 0.0
2018-Jul-18 18:26N 38°55' E 001°26'0 0.0
2018-Jul-18 17:31N 38°55' E 001°26'2 5.5
2018-Jul-18 17:09N 38°53' E 001°26'214.0
2018-Jul-18 16:59N 38°51' E 001°26'6 5.4
2018-Jul-18 15:58N 38°45' E 001°25'612.5
2018-Jul-18 15:29N 38°51' E 001°26'4 4.8
2018-Jul-18 14:42N 38°55' E 001°26'0 0.0
2018-Jul-18 14:29N 38°55' E 001°26'0 0.0
2018-Jul-18 13:22N 38°55' E 001°26'0 0.0
2018-Jul-18 12:57N 38°55' E 001°26'1 1.2
2018-Jul-18 11:44N 38°53' E 001°27'3 1.9
2018-Jul-18 10:02N 38°50' E 001°26'113.2
2018-Jul-18 09:57N 38°51' E 001°26'3 7.0
2018-Jul-18 09:27N 38°55' E 001°26'0 0.0
2018-Jul-18 08:48N 38°55' E 001°26'0 0.0
2018-Jul-18 08:27N 38°55' E 001°26'0 0.0
2018-Jul-18 07:58N 38°55' E 001°26'0 0.3
2018-Jul-18 07:23N 38°55' E 001°27'513.1
2018-Jul-18 07:00N 38°50' E 001°26'2 2.0
2018-Jul-18 05:46N 38°48' E 001°25'413.3
2018-Jul-18 05:27N 38°52' E 001°26'3 6.2
2018-Jul-18 04:56N 38°55' E 001°26'0 0.0
2018-Jul-18 04:29N 38°55' E 001°26'0 0.0
2018-Jul-18 03:56N 38°55' E 001°26'0 0.0
2018-Jul-18 02:08N 38°55' E 001°26'0 0.0
2018-Jul-18 01:54N 38°55' E 001°26'0 0.0
2018-Jul-18 01:28N 38°55' E 001°26'0 0.0
2018-Jul-18 00:59N 38°55' E 001°26'0 0.0
2018-Jul-18 00:26N 38°55' E 001°26'0 0.0
2018-Jul-18 00:00N 38°55' E 001°26'0 0.0
2018-Jul-17 23:27N 38°55' E 001°26'0 0.0
2018-Jul-17 21:48N 38°55' E 001°26'1 2.6
2018-Jul-17 21:30N 38°54' E 001°27'8 7.1
2018-Jul-17 20:19N 38°46' E 001°25'613.3
2018-Jul-17 19:53N 38°51' E 001°26'3 3.3
2018-Jul-17 18:52N 38°55' E 001°26'0 0.0
2018-Jul-17 18:26N 38°55' E 001°26'0 0.0
2018-Jul-17 17:58N 38°55' E 001°26'0 0.0
2018-Jul-17 17:29N 38°55' E 001°26'5 9.5
2018-Jul-17 17:00N 38°50' E 001°26'612.1
2018-Jul-17 16:30N 38°44' E 001°25'1 1.9
2018-Jul-17 15:58N 38°45' E 001°25'612.7
2018-Jul-17 15:29N 38°51' E 001°26'4 7.5
2018-Jul-17 15:00N 38°55' E 001°26'0 0.0
2018-Jul-17 14:28N 38°55' E 001°26'0 0.0
2018-Jul-17 13:58N 38°55' E 001°26'0 0.0
2018-Jul-17 13:27N 38°55' E 001°26'0 0.0
2018-Jul-17 13:00N 38°55' E 001°26'0 0.0
2018-Jul-17 12:26N 38°55' E 001°26'0 0.0
2018-Jul-17 11:58N 38°55' E 001°26'511.3
2018-Jul-17 11:29N 38°49' E 001°26'3 2.4
2018-Jul-17 10:17N 38°47' E 001°24'512.8
2018-Jul-17 09:54N 38°51' E 001°26'4 8.0
2018-Jul-17 09:28N 38°55' E 001°26'0 0.0
2018-Jul-17 09:00N 38°55' E 001°26'0 0.0
2018-Jul-17 08:28N 38°55' E 001°26'0 0.0
2018-Jul-17 08:00N 38°55' E 001°26'0 0.0
2018-Jul-17 07:30N 38°55' E 001°26'510.2
2018-Jul-17 07:00N 38°50' E 001°26'611.2
2018-Jul-17 06:29N 38°44' E 001°25'2 2.9
2018-Jul-17 05:57N 38°46' E 001°25'613.4
2018-Jul-17 05:30N 38°51' E 001°26'3 2.4
2018-Jul-17 04:07N 38°55' E 001°26'0 0.0
2018-Jul-17 03:58N 38°55' E 001°26'0 0.0
2018-Jul-17 03:29N 38°55' E 001°26'0 0.0
2018-Jul-17 02:57N 38°55' E 001°26'0 0.0
2018-Jul-17 01:29N 38°55' E 001°26'0 0.0
2018-Jul-17 00:15N 38°55' E 001°26'0 0.0
2018-Jul-16 22:41N 38°55' E 001°26'0 0.0
2018-Jul-16 22:29N 38°55' E 001°26'0 0.0
2018-Jul-16 21:56N 38°55' E 001°26'3 5.2
2018-Jul-16 21:24N 38°52' E 001°26'6 4.8
2018-Jul-16 20:12N 38°46' E 001°25'513.9
2018-Jul-16 19:48N 38°52' E 001°26'3 6.0
2018-Jul-16 19:16N 38°55' E 001°26'0 0.0
2018-Jul-16 18:37N 38°55' E 001°26'0 0.0
2018-Jul-16 18:28N 38°55' E 001°26'0 0.0
2018-Jul-16 17:59N 38°55' E 001°26'0 0.0
2018-Jul-16 17:30N 38°55' E 001°26'710.4
2018-Jul-16 16:50N 38°48' E 001°25'3 4.1
2018-Jul-16 16:02N 38°45' E 001°25'110.6
2018-Jul-16 15:59N 38°45' E 001°25'611.9
2018-Jul-16 15:30N 38°51' E 001°26'4 5.9
2018-Jul-16 14:51N 38°55' E 001°26'0 0.0
2018-Jul-16 14:29N 38°55' E 001°26'0 0.0
2018-Jul-16 13:59N 38°55' E 001°26'0 0.0
2018-Jul-16 13:27N 38°55' E 001°26'0 0.0
2018-Jul-16 12:58N 38°55' E 001°26'0 0.0
2018-Jul-16 12:28N 38°55' E 001°26'0 0.7
2018-Jul-16 11:58N 38°55' E 001°27'613.4
2018-Jul-16 11:30N 38°48' E 001°25'4 3.9
2018-Jul-16 10:34N 38°45' E 001°25'110.7
2018-Jul-16 10:27N 38°46' E 001°25'611.5
2018-Jul-16 09:57N 38°51' E 001°27'3 6.9
2018-Jul-16 09:28N 38°55' E 001°26'0 0.0
2018-Jul-16 08:57N 38°55' E 001°26'0 0.0
2018-Jul-16 08:28N 38°55' E 001°26'0 0.0
2018-Jul-16 07:57N 38°55' E 001°26'1 2.6
2018-Jul-16 07:29N 38°54' E 001°27'713.1
2018-Jul-16 06:59N 38°47' E 001°25'2 3.5
2018-Jul-16 06:16N 38°45' E 001°25'712.7
2018-Jul-16 05:44N 38°51' E 001°27'312.1
2018-Jul-16 05:28N 38°55' E 001°26'0 0.0
2018-Jul-16 04:59N 38°55' E 001°26'0 0.0
2018-Jul-16 04:28N 38°55' E 001°26'0 0.0
2018-Jul-16 03:58N 38°55' E 001°26'0 0.0
2018-Jul-16 03:30N 38°55' E 001°26'0 0.0
2018-Jul-16 02:58N 38°55' E 001°26'0 0.0
2018-Jul-16 02:30N 38°55' E 001°26'0 0.0
2018-Jul-16 01:53N 38°55' E 001°26'0 0.0
2018-Jul-16 01:29N 38°55' E 001°26'0 0.0
2018-Jul-16 01:01N 38°55' E 001°26'0 0.0
2018-Jul-16 00:27N 38°55' E 001°26'0 0.0
2018-Jul-15 23:59N 38°55' E 001°26'0 0.0
2018-Jul-15 22:23N 38°55' E 001°26'0 0.0
2018-Jul-15 21:47N 38°55' E 001°26'1 3.3
2018-Jul-15 21:30N 38°54' E 001°27'9 7.7
2018-Jul-15 20:22N 38°45' E 001°25'713.7
2018-Jul-15 19:53N 38°52' E 001°26'3 5.7
2018-Jul-15 19:20N 38°55' E 001°26'0 0.0
2018-Jul-15 19:00N 38°55' E 001°26'0 0.0
2018-Jul-15 18:27N 38°55' E 001°26'0 0.0
2018-Jul-15 17:59N 38°55' E 001°26'0 0.0
2018-Jul-15 17:27N 38°55' E 001°26'9 6.0
2018-Jul-15 15:57N 38°46' E 001°25'612.7
2018-Jul-15 15:30N 38°51' E 001°26'3 6.8
2018-Jul-15 15:00N 38°55' E 001°26'0 0.0
2018-Jul-15 14:21N 38°55' E 001°26'0 0.0
2018-Jul-15 13:44N 38°55' E 001°26'0 0.0
2018-Jul-15 13:22N 38°55' E 001°26'0 0.0
2018-Jul-15 12:50N 38°55' E 001°26'0 0.0
2018-Jul-15 12:23N 38°55' E 001°26'0 0.2
2018-Jul-15 11:52N 38°55' E 001°26'411.7
2018-Jul-15 11:30N 38°51' E 001°26'1 0.4
2018-Jul-15 09:58N 38°51' E 001°26'4 7.7
2018-Jul-15 09:30N 38°55' E 001°26'0 0.0
2018-Jul-15 08:55N 38°55' E 001°26'0 0.2
2018-Jul-15 08:21N 38°55' E 001°27'613.7
2018-Jul-15 07:55N 38°49' E 001°25'5 4.6
2018-Jul-15 06:55N 38°44' E 001°25'713.5
2018-Jul-15 06:24N 38°51' E 001°26'4 8.4
2018-Jul-15 05:58N 38°55' E 001°26'0 0.0
2018-Jul-15 05:28N 38°55' E 001°26'0 0.0
2018-Jul-15 05:00N 38°55' E 001°26'0 0.0
2018-Jul-15 04:28N 38°55' E 001°26'0 0.0
2018-Jul-15 03:59N 38°55' E 001°26'0 0.0
2018-Jul-15 03:21N 38°55' E 001°26'0 0.0
2018-Jul-15 02:59N 38°55' E 001°26'0 0.0
2018-Jul-15 02:30N 38°55' E 001°26'0 0.0
2018-Jul-15 01:58N 38°55' E 001°26'0 0.0
2018-Jul-15 01:29N 38°55' E 001°26'0 0.0
2018-Jul-15 01:00N 38°55' E 001°26'0 0.0
2018-Jul-15 00:27N 38°55' E 001°26'0 0.0
2018-Jul-14 23:58N 38°55' E 001°26'0 0.0
2018-Jul-14 23:30N 38°55' E 001°26'0 0.0
2018-Jul-14 22:58N 38°55' E 001°26'0 0.0
2018-Jul-14 22:27N 38°55' E 001°26'0 0.0
2018-Jul-14 22:00N 38°55' E 001°26'2 3.8
2018-Jul-14 21:27N 38°53' E 001°27'8 7.0
2018-Jul-14 20:20N 38°45' E 001°25'613.7
2018-Jul-14 19:53N 38°51' E 001°26'4 8.1
2018-Jul-14 19:27N 38°55' E 001°26'0 0.0
2018-Jul-14 19:00N 38°55' E 001°26'0 0.0
2018-Jul-14 18:26N 38°55' E 001°26'0 0.1
2018-Jul-14 17:19N 38°55' E 001°27'9 6.3
2018-Jul-14 15:56N 38°46' E 001°25'512.6
2018-Jul-14 15:30N 38°51' E 001°27'4 6.5
2018-Jul-14 14:57N 38°55' E 001°26'0 0.0
2018-Jul-14 14:26N 38°55' E 001°26'0 0.0
2018-Jul-14 13:27N 38°55' E 001°26'0 0.0
2018-Jul-14 12:58N 38°55' E 001°26'0 0.0
2018-Jul-14 12:30N 38°55' E 001°26'0 0.0
2018-Jul-14 11:58N 38°55' E 001°26'510.8
2018-Jul-14 11:30N 38°50' E 001°26'5 5.2
2018-Jul-14 10:30N 38°45' E 001°25'713.2
2018-Jul-14 09:58N 38°52' E 001°27'3 6.5
2018-Jul-14 09:29N 38°55' E 001°26'0 0.0
2018-Jul-14 09:00N 38°55' E 001°26'0 0.0
2018-Jul-14 08:24N 38°55' E 001°26'0 0.0
2018-Jul-14 08:00N 38°55' E 001°26'0 0.2
2018-Jul-14 07:26N 38°55' E 001°27'9 5.8
2018-Jul-14 05:56N 38°46' E 001°25'613.0
2018-Jul-14 05:30N 38°51' E 001°26'3 6.4
2018-Jul-14 04:59N 38°55' E 001°26'0 0.0
2018-Jul-14 04:26N 38°55' E 001°26'0 0.0
2018-Jul-14 03:34N 38°55' E 001°26'0 0.0
2018-Jul-14 03:30N 38°55' E 001°26'0 0.0
2018-Jul-14 02:50N 38°55' E 001°26'0 0.0
2018-Jul-14 02:30N 38°55' E 001°26'0 0.0
2018-Jul-14 01:58N 38°55' E 001°26'0 0.0
2018-Jul-14 01:29N 38°55' E 001°26'0 0.0
2018-Jul-14 00:53N 38°55' E 001°26'0 0.0
2018-Jul-14 00:30N 38°55' E 001°26'0 0.0
2018-Jul-13 23:56N 38°55' E 001°26'0 0.0
2018-Jul-13 23:30N 38°55' E 001°26'0 0.0
2018-Jul-13 22:58N 38°55' E 001°26'0 0.0
2018-Jul-13 22:29N 38°55' E 001°26'0 0.0
2018-Jul-13 21:58N 38°55' E 001°26'2 3.8
2018-Jul-13 21:28N 38°53' E 001°27'7 5.7
2018-Jul-13 20:17N 38°46' E 001°24'514.0
2018-Jul-13 19:54N 38°51' E 001°27'3 8.9
2018-Jul-13 19:30N 38°55' E 001°26'0 0.0
2018-Jul-13 18:57N 38°55' E 001°26'0 0.0
2018-Jul-13 18:27N 38°55' E 001°26'0 0.0
2018-Jul-13 17:59N 38°55' E 001°26'0 0.1
2018-Jul-13 17:29N 38°55' E 001°26'611.9
2018-Jul-13 16:57N 38°49' E 001°25'4 4.4
2018-Jul-13 16:02N 38°45' E 001°25'012.4
2018-Jul-13 16:00N 38°45' E 001°25'612.9
2018-Jul-13 15:30N 38°51' E 001°26'4 6.4
2018-Jul-13 14:57N 38°55' E 001°26'0 0.0
2018-Jul-13 13:59N 38°55' E 001°26'0 0.0
2018-Jul-13 13:28N 38°55' E 001°26'0 0.0
2018-Jul-13 12:59N 38°55' E 001°26'0 0.0
2018-Jul-13 12:27N 38°55' E 001°26'0 0.0
2018-Jul-13 11:59N 38°55' E 001°26'4 8.7
2018-Jul-13 11:30N 38°51' E 001°26'6 5.9
2018-Jul-13 10:29N 38°45' E 001°25'611.8
2018-Jul-13 10:00N 38°50' E 001°26'4 8.5
2018-Jul-13 09:28N 38°55' E 001°26'0 0.0
2018-Jul-13 08:59N 38°55' E 001°26'0 0.0
2018-Jul-13 08:29N 38°55' E 001°26'0 0.0
2018-Jul-13 07:59N 38°55' E 001°26'0 0.4
2018-Jul-13 07:26N 38°55' E 001°27'613.6
2018-Jul-13 07:00N 38°49' E 001°25'3 2.3
2018-Jul-13 05:54N 38°46' E 001°25'513.1
2018-Jul-13 05:29N 38°52' E 001°26'3 6.6
2018-Jul-13 05:00N 38°55' E 001°26'0 0.0
2018-Jul-13 04:18N 38°55' E 001°26'0 0.0
2018-Jul-13 03:53N 38°55' E 001°26'0 0.0
2018-Jul-13 03:15N 38°55' E 001°26'0 0.0
2018-Jul-13 02:56N 38°55' E 001°26'0 0.0
2018-Jul-13 02:30N 38°55' E 001°26'0 0.0
2018-Jul-13 02:00N 38°55' E 001°26'0 0.0
2018-Jul-13 01:29N 38°55' E 001°26'0 0.0
2018-Jul-13 01:00N 38°55' E 001°26'0 0.0
2018-Jul-13 00:30N 38°55' E 001°26'0 0.0
2018-Jul-12 23:55N 38°55' E 001°26'0 0.0
2018-Jul-12 23:29N 38°55' E 001°26'0 0.0
2018-Jul-12 23:00N 38°55' E 001°26'0 0.0
2018-Jul-12 22:23N 38°55' E 001°26'1 1.6
2018-Jul-12 21:32N 38°53' E 001°27'113.1
2018-Jul-12 21:29N 38°53' E 001°26'814.2
2018-Jul-12 20:56N 38°45' E 001°25'1 1.9
2018-Jul-12 20:29N 38°44' E 001°25'712.3
2018-Jul-12 19:53N 38°51' E 001°26'3 6.9
2018-Jul-12 19:24N 38°55' E 001°26'0 0.0
2018-Jul-12 18:54N 38°55' E 001°26'0 0.0
2018-Jul-12 17:57N 38°55' E 001°26'0 0.2
2018-Jul-12 17:24N 38°55' E 001°26'713.5
2018-Jul-12 16:54N 38°48' E 001°25'3 2.2
2018-Jul-12 15:30N 38°51' E 001°26'4 7.3
2018-Jul-12 14:58N 38°55' E 001°26'0 0.0
2018-Jul-12 14:26N 38°55' E 001°26'0 0.0
2018-Jul-12 13:59N 38°55' E 001°26'0 0.0
2018-Jul-12 13:21N 38°55' E 001°26'0 0.0
2018-Jul-12 13:00N 38°55' E 001°26'0 0.0
2018-Jul-12 12:30N 38°55' E 001°26'0 0.1
2018-Jul-12 11:53N 38°55' E 001°26'512.4
2018-Jul-12 11:28N 38°50' E 001°26'3 3.1
2018-Jul-12 10:22N 38°46' E 001°25'514.2
2018-Jul-12 10:00N 38°51' E 001°26'3 6.7
2018-Jul-12 09:28N 38°55' E 001°26'0 0.0
2018-Jul-12 08:59N 38°55' E 001°26'0 0.0
2018-Jul-12 08:30N 38°55' E 001°26'0 0.0
2018-Jul-12 07:59N 38°55' E 001°26'0 0.0
2018-Jul-12 07:30N 38°55' E 001°26'10 6.9
2018-Jul-12 06:01N 38°45' E 001°25'012.9
2018-Jul-12 05:59N 38°45' E 001°25'613.1
2018-Jul-12 05:30N 38°51' E 001°26'4 6.8
2018-Jul-12 04:59N 38°55' E 001°26'0 0.0
2018-Jul-12 04:26N 38°55' E 001°26'0 0.0
2018-Jul-12 03:57N 38°55' E 001°26'0 0.0
2018-Jul-12 03:20N 38°55' E 001°26'0 0.0
2018-Jul-12 02:58N 38°55' E 001°26'0 0.0
2018-Jul-12 02:22N 38°55' E 001°26'0 0.0
2018-Jul-12 01:58N 38°55' E 001°26'0 0.0
2018-Jul-12 01:30N 38°55' E 001°26'0 0.0
2018-Jul-12 01:00N 38°55' E 001°26'0 0.0
2018-Jul-12 00:26N 38°55' E 001°26'0 0.0
2018-Jul-12 00:00N 38°55' E 001°26'0 0.0
2018-Jul-11 23:26N 38°55' E 001°26'0 0.0
2018-Jul-11 23:00N 38°55' E 001°26'  

Dump ship's entire track history